Aérodrome :
LOGIN :

S'inscrire | Disclaimer

   EN    FR    IT 

 










Légende :    VFR   VFR Marginal   IFR   IFR Intensif   IFR Très Intensif
Visi : 
Plafond : 
>= 8 km
>= 3000ft
5 à 8 km
1000 à 3000 ft
1500m à 5 km
500 à 1000 ft
800 à 1500m
200 à 500 ft
< 800m
< 200 ft
Symboles :   Orages  Brouillard  Fortes neiges  Fortes précipitations  Vent > 20 kt
SIGMETs :   Divers  Orages  Givrage  Turbulence  Onde Orograph.  Cendres Volcan.







- Altitude de l'aérodrome : 80 ft
- Code IATA : LPL
- Voir les cartes d'approche


EGGP - Liverpool John Lennon

DERNIER METAR :
  • 170950Z 34008KT 300V020 9999 9000S VCSH FEW025 SCT035 16/09 Q1027

METARs EXPIRÉS :
  • 170920Z 34007KT 9999 VCSH FEW032 BKN038 15/10 Q1027
  • 170850Z 36006KT 330V040 9999 VCSH FEW032 BKN038 14/10 Q1026
  • 170820Z 36005KT 320V040 9999 FEW030 BKN038 14/10 Q1026
  • 170750Z 01006KT 320V060 9999 FEW030 BKN037 15/10 Q1026
  • 170720Z 34005KT 300V010 9999 FEW023 BKN038 14/09 Q1026
  • 170650Z 33004KT 9999 FEW023 SCT036 13/10 Q1025

TAF TAF EGGP
Valide du 17 à 06h jusqu'au 18 à 06h UTC


170457Z 1706/1806 33007KT 9999 SCT030
PROB30 1804/1806 6000
ATIS : +44 151 907 2000 (option 5 or ext 5150)
Météo : +44 871 750 5150
Pas de NOTAMs connus pour ce terrain.



MET'MAP, la Météo Aéronautique d'un coup d'oeil ! - Copyright ORBIFLY Décembre 2007 - Disclaimer

ORBIFLY MET'MAP TEAM :

Programmation & Développement : Alexandra Zaïnal
Conception & Développement : Baudouin d'Aumeries
Co-Programmation & Développement : Marc-Olivier Méhu
Soutien technique & logistique : Manuel Goepfert

Contact : metmap@orbifly.com




SOURCES & CREDITS :

   NOAA